Chicago Midway International Airport

KMDW | MDW

Chicago , Illinois , United States

Saturday, September 21st, 2019 | 06:32

Weather

KMDW 211053Z 19006KT 10SM BKN160 23/20 A3011 RMK AO2 SLP184 T02280200

Charts

30 Available

Gates

57 Available

Runways

5 Available

Events

No events for this airport


New event